createdAt,value
2022-08-20T00:01:01.926Z,1.40
2022-08-20T00:03:34.476Z,1.33
2022-08-20T00:06:09.613Z,1.35
2022-08-20T00:08:40.358Z,1.30
2022-08-20T00:11:12.597Z,1.00
2022-08-20T00:13:46.093Z,1.38
2022-08-20T00:16:17.619Z,1.27
2022-08-20T00:18:48.541Z,0.95
2022-08-20T00:21:23.285Z,1.23
2022-08-20T00:23:59.379Z,1.00
2022-08-20T00:26:29.589Z,1.33
2022-08-20T00:28:59.449Z,1.17
2022-08-20T00:31:29.420Z,0.93
2022-08-20T00:33:59.209Z,1.27
2022-08-20T00:36:32.601Z,1.15
2022-08-20T00:39:03.056Z,1.20
2022-08-20T00:41:33.707Z,1.17
2022-08-20T00:44:14.075Z,1.23
2022-08-20T00:46:45.570Z,1.35
2022-08-20T00:49:22.196Z,1.25
2022-08-20T00:51:57.578Z,1.27
2022-08-20T00:54:32.419Z,1.30
2022-08-20T00:57:09.850Z,1.55
2022-08-20T00:59:43.207Z,1.05
2022-08-20T01:02:16.017Z,1.50
2022-08-20T01:04:48.537Z,1.33
2022-08-20T01:07:24.134Z,1.30
2022-08-20T01:09:59.169Z,1.30
2022-08-20T01:12:30.771Z,1.40
2022-08-20T01:15:03.512Z,1.25
2022-08-20T01:17:38.107Z,1.48
2022-08-20T01:20:13.363Z,1.52
2022-08-20T01:23:05.261Z,1.73
2022-08-20T01:25:44.813Z,2.00
2022-08-20T01:28:16.502Z,1.23
2022-08-20T01:30:46.854Z,1.63
2022-08-20T01:33:16.867Z,1.40
2022-08-20T01:35:47.455Z,1.30
2022-08-20T01:38:17.406Z,2.40
2022-08-20T01:41:28.832Z,1.70
2022-08-20T01:43:59.958Z,1.20
2022-08-20T01:46:32.711Z,1.60
2022-08-20T01:49:20.251Z,1.20
2022-08-20T01:51:54.812Z,1.50
2022-08-20T01:54:25.143Z,1.30
2022-08-20T01:57:02.043Z,1.58
2022-08-20T01:59:32.507Z,1.25
2022-08-20T02:02:02.869Z,1.67
2022-08-20T02:04:33.112Z,1.40
2022-08-20T02:07:05.671Z,1.17
2022-08-20T02:09:39.234Z,1.50
2022-08-20T02:12:14.353Z,1.42
2022-08-20T02:14:47.375Z,1.55
2022-08-20T02:17:18.801Z,1.50
2022-08-20T02:19:51.611Z,1.38
2022-08-20T02:22:30.514Z,1.30
2022-08-20T02:25:00.344Z,1.40
2022-08-20T02:27:33.839Z,1.45
2022-08-20T02:30:04.595Z,1.30
2022-08-20T02:32:34.552Z,1.50
2022-08-20T02:35:04.995Z,1.38
2022-08-20T02:37:34.924Z,1.80
2022-08-20T02:40:05.242Z,1.58
2022-08-20T02:42:41.905Z,1.80
2022-08-20T02:45:18.841Z,1.55
2022-08-20T02:47:49.629Z,1.52
2022-08-20T02:50:21.749Z,1.55
2022-08-20T02:52:52.094Z,1.60
2022-08-20T02:55:26.865Z,1.80
2022-08-20T02:58:01.349Z,1.55
2022-08-20T03:00:38.600Z,1.65
2022-08-20T03:03:09.309Z,1.70
2022-08-20T03:05:41.631Z,2.00
2022-08-20T03:08:14.764Z,1.50
2022-08-20T03:10:47.860Z,1.90
2022-08-20T03:13:20.785Z,2.10
2022-08-20T03:15:58.563Z,1.70
2022-08-20T03:18:33.746Z,2.08
2022-08-20T03:21:04.907Z,1.77
2022-08-20T03:23:36.574Z,2.08
2022-08-20T03:26:12.909Z,1.98
2022-08-20T03:28:47.980Z,1.83
2022-08-20T03:31:19.268Z,1.95
2022-08-20T03:33:53.538Z,1.92
2022-08-20T03:36:27.853Z,2.00
2022-08-20T03:38:59.185Z,2.03
2022-08-20T03:41:29.339Z,2.15
2022-08-20T03:44:01.869Z,2.38
2022-08-20T03:46:31.989Z,2.42
2022-08-20T03:49:01.921Z,2.28
2022-08-20T03:51:33.162Z,2.28
2022-08-20T03:54:22.250Z,2.40
2022-08-20T03:56:52.077Z,2.85
2022-08-20T03:59:24.537Z,2.47
2022-08-20T04:01:55.026Z,2.42
2022-08-20T04:04:24.867Z,2.50
2022-08-20T04:06:55.830Z,2.65
2022-08-20T04:09:25.700Z,2.88
2022-08-20T04:12:00.948Z,2.78
2022-08-20T04:14:33.626Z,2.25
2022-08-20T04:17:07.676Z,2.63
2022-08-20T04:22:09.095Z,2.90
2022-08-20T04:24:39.016Z,2.70
2022-08-20T04:27:09.372Z,2.53
2022-08-20T04:29:45.729Z,2.63
2022-08-20T04:32:15.731Z,3.20
2022-08-20T04:34:47.783Z,2.90
2022-08-20T04:37:21.236Z,2.70
2022-08-20T04:40:11.437Z,2.60
2022-08-20T04:42:39.198Z,2.83
2022-08-20T04:45:12.798Z,2.97
2022-08-20T04:47:42.643Z,2.80
2022-08-20T04:50:14.407Z,2.70
2022-08-20T04:52:44.319Z,2.88
2022-08-20T04:55:14.441Z,2.67
2022-08-20T04:57:44.314Z,3.10
2022-08-20T05:00:20.260Z,3.22
2022-08-20T05:02:50.073Z,2.75
2022-08-20T05:05:20.787Z,3.30
2022-08-20T05:07:50.949Z,3.08
2022-08-20T05:10:23.559Z,3.03
2022-08-20T05:12:56.938Z,2.85
2022-08-20T05:15:29.807Z,2.88
2022-08-20T05:18:03.931Z,3.13
2022-08-20T05:20:35.914Z,3.17
2022-08-20T05:23:05.854Z,3.53
2022-08-20T05:25:35.912Z,3.10
2022-08-20T05:28:09.568Z,2.90
2022-08-20T05:30:43.483Z,3.50
2022-08-20T05:33:16.805Z,2.88
2022-08-20T05:35:47.333Z,3.30
2022-08-20T05:38:19.342Z,3.35
2022-08-20T05:40:49.915Z,3.15
2022-08-20T05:43:19.804Z,2.92
2022-08-20T05:45:56.519Z,3.15
2022-08-20T05:48:28.080Z,3.45
2022-08-20T05:50:58.699Z,3.17
2022-08-20T05:53:28.742Z,3.20
2022-08-20T05:56:01.350Z,3.45
2022-08-20T05:58:32.994Z,2.95
2022-08-20T06:01:06.443Z,2.78
2022-08-20T06:03:48.809Z,2.88
2022-08-20T06:06:44.060Z,2.95
2022-08-20T06:09:09.167Z,3.20
2022-08-20T06:11:39.056Z,3.13
2022-08-20T06:14:08.905Z,3.10
2022-08-20T06:16:56.323Z,2.97
2022-08-20T06:19:32.538Z,3.00
2022-08-20T06:22:18.725Z,3.10
2022-08-20T06:24:53.146Z,3.17
2022-08-20T06:27:24.245Z,3.28
2022-08-20T06:29:55.061Z,3.25
2022-08-20T06:32:31.930Z,2.97
2022-08-20T06:35:04.099Z,2.50
2022-08-20T06:37:36.457Z,2.85
2022-08-20T06:40:11.035Z,3.25
2022-08-20T06:42:47.812Z,3.22
2022-08-20T06:45:21.421Z,3.13
2022-08-20T06:47:55.777Z,3.65
2022-08-20T06:50:29.385Z,3.40
2022-08-20T06:52:59.673Z,3.25
2022-08-20T06:55:30.593Z,3.25
2022-08-20T06:58:01.378Z,3.45
2022-08-20T07:00:33.907Z,3.33
2022-08-20T07:03:07.367Z,3.83
2022-08-20T07:05:42.177Z,3.70
2022-08-20T07:08:13.625Z,3.28
2022-08-20T07:10:44.123Z,3.72
2022-08-20T07:13:16.316Z,3.75
2022-08-20T07:15:46.757Z,3.75
2022-08-20T07:18:28.099Z,3.50
2022-08-20T07:20:58.691Z,3.95
2022-08-20T07:23:29.346Z,4.00
2022-08-20T07:25:59.223Z,4.22
2022-08-20T07:28:32.063Z,3.53
2022-08-20T07:31:15.946Z,3.97
2022-08-20T07:33:50.525Z,3.35
2022-08-20T07:36:20.797Z,3.70
2022-08-20T07:38:50.995Z,3.90
2022-08-20T07:41:21.991Z,3.90
2022-08-20T07:43:51.961Z,3.25
2022-08-20T07:46:23.227Z,4.00
2022-08-20T07:48:55.701Z,3.40
2022-08-20T07:51:26.164Z,3.33
2022-08-20T07:53:58.208Z,3.38
2022-08-20T07:56:28.375Z,2.90
2022-08-20T07:59:02.903Z,3.38
2022-08-20T08:01:35.211Z,3.22
2022-08-20T08:04:07.799Z,3.47
2022-08-20T08:06:37.945Z,3.22
2022-08-20T08:09:13.065Z,3.25
2022-08-20T08:11:48.984Z,3.35
2022-08-20T08:14:23.515Z,3.33
2022-08-20T08:16:55.675Z,4.05
2022-08-20T08:19:37.771Z,3.90
2022-08-20T08:22:10.963Z,3.42
2022-08-20T08:24:40.795Z,3.80
2022-08-20T08:27:10.984Z,3.60
2022-08-20T08:29:40.870Z,3.60
2022-08-20T08:32:10.835Z,3.40
2022-08-20T08:34:48.105Z,3.72
2022-08-20T08:37:17.953Z,3.70
2022-08-20T08:39:48.328Z,3.40
2022-08-20T08:42:29.344Z,3.50
2022-08-20T08:45:00.501Z,4.07
2022-08-20T08:47:34.659Z,3.40
2022-08-20T08:52:42.807Z,3.45
2022-08-20T08:55:15.932Z,3.47
2022-08-20T08:57:45.921Z,3.35
2022-08-20T09:00:19.705Z,2.97
2022-08-20T09:03:00.003Z,3.40
2022-08-20T09:05:39.391Z,3.50
2022-08-20T09:08:17.043Z,2.95
2022-08-20T09:10:47.836Z,3.08
2022-08-20T09:13:17.674Z,3.00
2022-08-20T09:15:47.698Z,2.97
2022-08-20T09:18:17.541Z,3.15
2022-08-20T09:20:50.014Z,2.70
2022-08-20T09:23:20.147Z,2.95
2022-08-20T09:25:50.415Z,2.65
2022-08-20T09:28:20.486Z,2.80
2022-08-20T09:30:51.292Z,3.00
2022-08-20T09:33:21.629Z,3.00
2022-08-20T09:35:54.055Z,3.10
2022-08-20T09:38:23.936Z,3.17
2022-08-20T09:40:53.776Z,2.75
2022-08-20T09:43:23.594Z,3.28
2022-08-20T09:45:53.611Z,3.28
2022-08-20T09:48:32.119Z,2.72
2022-08-20T09:51:04.973Z,3.05
2022-08-20T09:53:35.527Z,3.03
2022-08-20T09:56:06.504Z,2.80
2022-08-20T09:58:39.739Z,2.72
2022-08-20T10:01:14.865Z,2.47
2022-08-20T10:03:45.282Z,2.40
2022-08-20T10:06:19.683Z,2.35
2022-08-20T10:08:49.815Z,2.60
2022-08-20T10:11:20.678Z,2.60
2022-08-20T10:13:50.548Z,2.47
2022-08-20T10:16:20.386Z,2.50
2022-08-20T10:18:50.718Z,2.92
2022-08-20T10:21:23.436Z,2.53
2022-08-20T10:23:53.274Z,2.50
2022-08-20T10:26:23.125Z,2.10
2022-08-20T10:28:55.441Z,2.35
2022-08-20T10:31:25.310Z,2.30
2022-08-20T10:33:55.150Z,2.15
2022-08-20T10:36:27.600Z,1.88
2022-08-20T10:38:57.449Z,1.80
2022-08-20T10:41:28.315Z,1.83
2022-08-20T10:43:58.171Z,4.40
2022-08-20T10:46:28.079Z,3.85
2022-08-20T10:48:57.925Z,4.13
2022-08-20T10:51:32.677Z,3.67
2022-08-20T10:54:03.052Z,3.08
2022-08-20T10:56:38.036Z,3.00
2022-08-20T10:59:08.600Z,4.20
2022-08-20T11:01:38.490Z,3.15
2022-08-20T11:04:08.332Z,2.60
2022-08-20T11:06:40.741Z,2.65
2022-08-20T11:09:10.572Z,2.08
2022-08-20T11:11:40.412Z,2.25
2022-08-20T11:14:10.323Z,2.47
2022-08-20T11:16:40.188Z,1.95
2022-08-20T11:19:10.022Z,1.70
2022-08-20T11:21:42.579Z,2.38
2022-08-20T11:24:12.473Z,2.42
2022-08-20T11:26:42.986Z,2.83
2022-08-20T11:29:12.877Z,2.75
2022-08-20T11:31:42.974Z,2.60
2022-08-20T11:34:13.013Z,2.22
2022-08-20T11:36:45.741Z,2.42
2022-08-20T11:39:15.732Z,2.03
2022-08-20T11:41:45.846Z,2.20
2022-08-20T11:44:21.194Z,3.00
2022-08-20T11:46:51.516Z,3.15
2022-08-20T11:49:21.365Z,4.70
2022-08-20T11:51:53.709Z,6.25
2022-08-20T11:54:23.601Z,5.47
2022-08-20T11:56:54.066Z,7.25
2022-08-20T11:59:23.927Z,6.22
2022-08-20T12:02:02.326Z,5.85
2022-08-20T12:04:33.378Z,5.57
2022-08-20T12:07:15.901Z,5.15
2022-08-20T12:09:51.202Z,5.75
2022-08-20T12:12:23.963Z,4.30
2022-08-20T12:14:54.265Z,4.15
2022-08-20T12:17:27.567Z,4.05
2022-08-20T12:20:00.386Z,3.90
2022-08-20T12:22:33.187Z,4.60
2022-08-20T12:25:03.291Z,3.70
2022-08-20T12:27:34.585Z,3.83
2022-08-20T12:30:07.659Z,4.75
2022-08-20T12:32:37.670Z,5.95
2022-08-20T12:35:09.082Z,4.53
2022-08-20T12:37:42.379Z,4.10
2022-08-20T12:40:15.571Z,3.50
2022-08-20T12:42:45.752Z,4.40
2022-08-20T12:45:15.861Z,3.47
2022-08-20T12:47:48.040Z,3.40
2022-08-20T12:50:20.793Z,4.03
2022-08-20T12:52:53.313Z,5.05
2022-08-20T12:55:23.725Z,4.32
2022-08-20T12:57:57.104Z,4.43
2022-08-20T13:00:29.065Z,1.85
2022-08-20T13:03:01.893Z,3.10
2022-08-20T13:05:32.536Z,3.15
2022-08-20T13:08:05.973Z,4.60
2022-08-20T13:10:38.102Z,3.72
2022-08-20T13:13:07.917Z,5.55
2022-08-20T13:15:37.765Z,5.63
2022-08-20T13:18:08.911Z,4.85
2022-08-20T13:20:40.793Z,3.30
2022-08-20T13:23:13.347Z,3.33
2022-08-20T13:25:43.236Z,3.05
2022-08-20T13:28:13.064Z,3.70
2022-08-20T13:30:43.611Z,3.00
2022-08-20T13:33:13.504Z,3.38
2022-08-20T13:35:43.523Z,3.08
2022-08-20T13:38:16.629Z,3.53
2022-08-20T13:40:48.886Z,3.30
2022-08-20T13:43:18.975Z,2.97
2022-08-20T13:45:48.787Z,2.70
2022-08-20T13:48:18.565Z,2.67
2022-08-20T13:50:48.447Z,2.58
2022-08-20T13:53:21.400Z,2.35
2022-08-20T13:55:52.934Z,2.17
2022-08-20T13:58:22.914Z,2.30
2022-08-20T14:00:53.294Z,2.90
2022-08-20T14:03:25.752Z,2.20
2022-08-20T14:05:55.894Z,2.22
2022-08-20T14:08:28.261Z,2.50
2022-08-20T14:10:58.370Z,2.03
2022-08-20T14:13:29.803Z,1.90
2022-08-20T14:15:59.768Z,1.90
2022-08-20T14:18:30.819Z,1.95
2022-08-20T14:21:00.656Z,1.98
2022-08-20T14:23:33.139Z,1.70
2022-08-20T14:26:06.842Z,1.73
2022-08-20T14:28:36.757Z,1.83
2022-08-20T14:31:06.576Z,2.08
2022-08-20T14:33:36.784Z,1.83
2022-08-20T14:36:07.798Z,2.15
2022-08-20T14:38:45.030Z,1.90
2022-08-20T14:41:14.888Z,2.33
2022-08-20T14:43:44.716Z,2.00
2022-08-20T14:46:14.545Z,1.90
2022-08-20T14:48:44.359Z,2.03
2022-08-20T14:51:14.179Z,1.88
2022-08-20T14:53:46.997Z,2.08
2022-08-20T14:56:17.994Z,1.67
2022-08-20T14:58:47.809Z,1.75
2022-08-20T15:01:17.704Z,1.90
2022-08-20T15:03:47.580Z,1.95
2022-08-20T15:06:22.322Z,1.75
2022-08-20T15:08:54.841Z,1.60
2022-08-20T15:11:24.633Z,2.58
2022-08-20T15:13:54.764Z,1.52
2022-08-20T15:16:24.625Z,1.27
2022-08-20T15:18:59.708Z,1.38
2022-08-20T15:21:30.326Z,1.90
2022-08-20T15:24:19.287Z,1.70
2022-08-20T15:29:22.897Z,1.20
2022-08-20T15:31:52.934Z,1.50
2022-08-20T15:34:25.544Z,1.42
2022-08-20T15:36:55.374Z,1.35
2022-08-20T15:39:27.792Z,0.90
2022-08-20T15:41:57.665Z,1.15
2022-08-20T15:44:27.511Z,1.40
2022-08-20T15:46:57.383Z,0.90
2022-08-20T15:49:27.555Z,0.80
2022-08-20T15:51:57.458Z,0.88
2022-08-20T15:54:30.733Z,0.80
2022-08-20T15:57:07.980Z,0.90
2022-08-20T15:59:57.226Z,1.00
2022-08-20T16:02:46.768Z,0.90
2022-08-20T16:05:26.098Z,1.20
2022-08-20T16:08:06.415Z,1.10
2022-08-20T16:10:51.219Z,1.20
2022-08-20T16:13:40.362Z,1.17
2022-08-20T16:16:16.839Z,1.10
2022-08-20T16:18:50.616Z,1.20
2022-08-20T16:21:29.452Z,1.30
2022-08-20T16:23:59.836Z,1.40
2022-08-20T16:26:54.479Z,1.30
2022-08-20T16:29:32.167Z,0.95
2022-08-20T16:32:05.853Z,1.00
2022-08-20T16:34:41.983Z,1.10
2022-08-20T16:37:25.278Z,1.05
2022-08-20T16:40:00.887Z,1.02
2022-08-20T16:42:40.125Z,1.00
2022-08-20T16:45:16.449Z,0.98
2022-08-20T16:47:47.298Z,0.93
2022-08-20T16:50:23.591Z,1.05
2022-08-20T16:52:53.982Z,0.95
2022-08-20T16:55:26.978Z,1.17
2022-08-20T16:57:59.621Z,0.90
2022-08-20T17:00:35.498Z,1.02
2022-08-20T17:03:08.393Z,1.40
2022-08-20T17:05:49.013Z,1.00
2022-08-20T17:08:24.618Z,1.00
2022-08-20T17:11:01.324Z,1.00
2022-08-20T17:13:36.976Z,1.20
2022-08-20T17:16:09.819Z,1.35
2022-08-20T17:18:41.541Z,1.20
2022-08-20T17:21:22.932Z,1.08
2022-08-20T17:24:02.771Z,1.20
2022-08-20T17:26:35.229Z,0.90
2022-08-20T17:29:21.635Z,1.33
2022-08-20T17:31:55.047Z,1.55
2022-08-20T17:34:27.799Z,1.17
2022-08-20T17:37:00.245Z,1.08
2022-08-20T17:39:31.911Z,1.23
2022-08-20T17:42:09.718Z,1.60
2022-08-20T17:44:45.861Z,1.25
2022-08-20T17:47:18.442Z,1.35
2022-08-20T17:50:01.888Z,1.50
2022-08-20T17:52:37.104Z,1.35
2022-08-20T17:57:42.798Z,1.48
2022-08-20T18:00:23.305Z,1.73
2022-08-20T18:02:55.639Z,1.40
2022-08-20T18:05:26.718Z,1.55
2022-08-20T18:08:10.123Z,1.30
2022-08-20T18:10:45.455Z,1.60
2022-08-20T18:13:21.160Z,1.35
2022-08-20T18:15:59.483Z,1.50
2022-08-20T18:18:51.007Z,1.83
2022-08-20T18:22:01.991Z,1.90
2022-08-20T18:24:39.811Z,1.88
2022-08-20T18:27:14.389Z,1.50
2022-08-20T18:29:46.780Z,2.10
2022-08-20T18:32:35.519Z,2.08
2022-08-20T18:35:16.804Z,1.25
2022-08-20T18:37:48.204Z,1.90
2022-08-20T18:40:25.028Z,1.50
2022-08-20T18:42:54.857Z,1.52
2022-08-20T18:45:33.829Z,2.30
2022-08-20T18:48:07.838Z,1.90
2022-08-20T18:50:47.037Z,2.20
2022-08-20T18:53:21.310Z,1.67
2022-08-20T18:56:03.718Z,1.65
2022-08-20T18:58:36.223Z,2.20
2022-08-20T19:01:14.226Z,2.10
2022-08-20T19:03:49.891Z,2.50
2022-08-20T19:06:31.302Z,3.20
2022-08-20T19:09:06.793Z,2.83
2022-08-20T19:11:58.694Z,2.25
2022-08-20T19:14:56.141Z,1.33
2022-08-20T19:17:51.194Z,1.48
2022-08-20T19:20:25.502Z,1.50
2022-08-20T19:22:58.230Z,1.30
2022-08-20T19:25:31.093Z,1.20
2022-08-20T19:28:02.575Z,1.33
2022-08-20T19:30:36.489Z,1.48
2022-08-20T19:33:07.210Z,1.85
2022-08-20T19:35:39.772Z,1.55
2022-08-20T19:38:11.334Z,1.38
2022-08-20T19:40:44.326Z,1.17
2022-08-20T19:43:19.452Z,1.38
2022-08-20T19:45:51.739Z,1.73
2022-08-20T19:48:46.711Z,1.48
2022-08-20T19:53:52.979Z,1.80
2022-08-20T19:56:24.748Z,1.70
2022-08-20T19:59:03.270Z,1.80
2022-08-20T20:01:34.486Z,1.60
2022-08-20T20:04:08.796Z,1.52
2022-08-20T20:09:20.089Z,1.60
2022-08-20T20:11:55.196Z,1.58
2022-08-20T20:14:28.844Z,1.70
2022-08-20T20:17:00.019Z,1.70
2022-08-20T20:19:30.037Z,2.03
2022-08-20T20:22:18.813Z,2.13
2022-08-20T20:25:00.587Z,2.63
2022-08-20T20:27:32.097Z,1.95
2022-08-20T20:30:04.408Z,1.90
2022-08-20T20:32:35.188Z,1.40
2022-08-20T20:35:09.247Z,1.73
2022-08-20T20:37:50.884Z,2.00
2022-08-20T20:40:26.479Z,1.70
2022-08-20T20:43:02.978Z,1.60
2022-08-20T20:45:37.168Z,1.75
2022-08-20T20:48:21.236Z,2.40
2022-08-20T20:50:52.605Z,2.22
2022-08-20T20:53:53.252Z,2.22
2022-08-20T20:56:33.853Z,1.70
2022-08-20T20:59:06.782Z,1.88
2022-08-20T21:01:48.452Z,1.90
2022-08-20T21:04:21.389Z,1.80
2022-08-20T21:06:52.133Z,1.95
2022-08-20T21:09:26.728Z,1.63
2022-08-20T21:11:56.602Z,1.42
2022-08-20T21:14:26.420Z,1.63
2022-08-20T21:16:56.536Z,1.95
2022-08-20T21:19:26.482Z,2.28
2022-08-20T21:21:56.303Z,1.77
2022-08-20T21:24:29.095Z,6.68
2022-08-20T21:26:59.263Z,3.40
2022-08-20T21:29:32.774Z,2.30
2022-08-20T21:32:03.370Z,1.90
2022-08-20T21:34:33.229Z,1.58
2022-08-20T21:37:03.039Z,1.67
2022-08-20T21:39:35.519Z,1.77
2022-08-20T21:42:28.260Z,3.28
2022-08-20T21:44:58.013Z,2.65
2022-08-20T21:47:28.235Z,2.28
2022-08-20T21:49:58.420Z,2.50
2022-08-20T21:52:28.234Z,2.60
2022-08-20T21:55:00.949Z,2.55
2022-08-20T21:57:33.716Z,2.17
2022-08-20T22:00:04.962Z,2.70
2022-08-20T22:02:34.942Z,2.13
2022-08-20T22:05:05.243Z,2.45
2022-08-20T22:07:35.072Z,2.05
2022-08-20T22:10:08.369Z,2.40
2022-08-20T22:12:38.353Z,3.28
2022-08-20T22:15:09.565Z,2.50
2022-08-20T22:17:39.415Z,2.20
2022-08-20T22:20:10.539Z,2.58
2022-08-20T22:22:40.402Z,2.05
2022-08-20T22:25:18.404Z,1.90
2022-08-20T22:27:48.535Z,2.20
2022-08-20T22:30:18.393Z,1.98
2022-08-20T22:32:52.244Z,2.05
2022-08-20T22:35:22.563Z,2.15
2022-08-20T22:37:52.424Z,3.22
2022-08-20T22:40:25.029Z,3.45
2022-08-20T22:42:55.050Z,2.80
2022-08-20T22:45:24.938Z,3.20
2022-08-20T22:47:54.796Z,3.20
2022-08-20T22:50:26.744Z,3.22
2022-08-20T22:52:57.184Z,2.85
2022-08-20T22:55:29.666Z,3.33
2022-08-20T22:57:59.534Z,3.10
2022-08-20T23:00:31.033Z,2.40
2022-08-20T23:03:02.376Z,3.42
2022-08-20T23:05:35.201Z,3.08
2022-08-20T23:08:07.195Z,2.75
2022-08-20T23:10:40.849Z,2.80
2022-08-20T23:13:11.004Z,2.40
2022-08-20T23:15:45.351Z,2.42
2022-08-20T23:18:18.479Z,2.47
2022-08-20T23:20:52.801Z,2.25
2022-08-20T23:25:56.266Z,2.47
2022-08-20T23:28:27.921Z,2.80
2022-08-20T23:30:57.816Z,2.45
2022-08-20T23:33:27.875Z,2.00
2022-08-20T23:35:58.147Z,2.72
2022-08-20T23:38:28.013Z,2.53
2022-08-20T23:41:00.454Z,2.42
2022-08-20T23:43:30.682Z,2.33
2022-08-20T23:46:03.587Z,2.60
2022-08-20T23:48:33.498Z,2.40
2022-08-20T23:51:03.600Z,2.40
2022-08-20T23:53:33.504Z,2.42
2022-08-20T23:56:06.533Z,2.25
2022-08-20T23:58:37.107Z,2.50
